Time,TemperatureF,DewpointF,PressureIn,WindDirection,WindDirectionDegrees,WindSpeedMPH,WindSpeedGustMPH,Humidity,HourlyPrecipIn,Conditions,Clouds,dailyrainin,SoftwareType,DateUTC
2013-06-12 00:00:00,61.2,57.6,29.89,ENE,64,0.0,0.0,88,0.00,RA,,0.00,WeatherDisplay:10.37,2013-06-12 04:00:00,
2013-06-12 00:05:00,61.2,57.6,29.89,East,96,0.0,0.0,88,0.00,RA,,0.00,WeatherDisplay:10.37,2013-06-12 04:05:00,
2013-06-12 00:10:00,61.2,57.6,29.89,ESE,112,0.0,0.0,88,0.00,CLR,,0.00,WeatherDisplay:10.37,2013-06-12 04:10:00,
2013-06-12 00:15:00,61.0,57.4,29.89,SSW,195,0.0,0.0,88,0.00,CLR,,0.00,WeatherDisplay:10.37,2013-06-12 04:15:00,
2013-06-12 00:20:00,61.0,57.4,29.89,ESE,106,0.0,0.0,88,0.00,CLR,,0.00,WeatherDisplay:10.37,2013-06-12 04:20:00,
2013-06-12 00:25:00,61.0,57.4,29.89,NE,43,0.0,0.0,88,0.00,CLR,,0.00,WeatherDisplay:10.37,2013-06-12 04:25:00,
2013-06-12 00:30:00,61.0,57.4,29.89,SE,128,0.0,0.0,88,0.00,CLR,,0.00,WeatherDisplay:10.37,2013-06-12 04:30:00,
2013-06-12 00:35:00,60.8,57.2,29.89,SW,217,0.0,0.0,88,0.00,CLR,,0.00,WeatherDisplay:10.37,2013-06-12 04:35:00,
2013-06-12 00:40:00,60.6,57.0,29.89,SSW,205,0.0,0.0,88,0.00,CLR,,0.00,WeatherDisplay:10.37,2013-06-12 04:40:00,
2013-06-12 00:45:00,60.6,57.0,29.89,South,176,0.0,0.0,88,0.00,CLR,,0.00,WeatherDisplay:10.37,2013-06-12 04:45:00,
2013-06-12 00:50:00,60.4,56.8,29.88,SW,227,0.0,0.0,88,0.00,CLR,,0.00,WeatherDisplay:10.37,2013-06-12 04:50:00,
2013-06-12 00:55:00,60.1,56.8,29.88,WSW,238,0.0,0.0,89,0.00,CLR,,0.00,WeatherDisplay:10.37,2013-06-12 04:55:00,
2013-06-12 01:00:00,59.9,56.6,29.88,SW,230,0.0,0.0,89,0.00,CLR,,0.00,WeatherDisplay:10.37,2013-06-12 05:00:00,
2013-06-12 01:05:00,59.7,56.5,29.89,SW,229,0.0,0.0,89,0.00,CLR,,0.00,WeatherDisplay:10.37,2013-06-12 05:05:00,
2013-06-12 01:10:00,59.7,56.5,29.89,SSW,193,0.0,0.0,89,0.00,CLR,,0.00,WeatherDisplay:10.37,2013-06-12 05:10:00,
2013-06-12 01:15:00,59.5,56.3,29.89,South,172,0.0,0.0,89,0.00,CLR,,0.00,WeatherDisplay:10.37,2013-06-12 05:15:00,
2013-06-12 01:20:00,59.4,56.2,29.89,WSW,247,0.0,0.0,89,0.00,CLR,,0.00,WeatherDisplay:10.37,2013-06-12 05:20:00,
2013-06-12 01:25:00,59.3,56.4,29.89,WNW,287,0.0,0.0,90,0.00,CLR,,0.00,WeatherDisplay:10.37,2013-06-12 05:25:00,
2013-06-12 01:30:00,59.2,56.3,29.89,NW,311,0.0,0.0,90,0.00,CLR,,0.00,WeatherDisplay:10.37,2013-06-12 05:30:00,
2013-06-12 01:35:00,59.0,56.1,29.89,NNW,333,0.0,0.0,90,0.00,CLR,,0.00,WeatherDisplay:10.37,2013-06-12 05:35:00,
2013-06-12 01:40:00,58.8,55.9,29.89,NW,310,0.0,0.0,90,0.00,CLR,,0.00,WeatherDisplay:10.37,2013-06-12 05:40:00,
2013-06-12 01:45:00,58.8,56.2,29.89,WSW,239,0.0,0.0,91,0.00,CLR,,0.00,WeatherDisplay:10.37,2013-06-12 05:45:00,
2013-06-12 01:50:00,58.6,56.0,29.90,SW,216,0.0,0.0,91,0.00,CLR,,0.00,WeatherDisplay:10.37,2013-06-12 05:50:00,
2013-06-12 01:55:00,58.5,55.9,29.90,NNE,27,0.0,0.0,91,0.00,CLR,,0.00,WeatherDisplay:10.37,2013-06-12 05:55:00,
2013-06-12 02:00:00,58.3,55.7,29.90,NW,322,0.0,0.0,91,0.00,CLR,,0.00,WeatherDisplay:10.37,2013-06-12 06:00:00,
2013-06-12 02:05:00,57.9,55.6,29.90,WSW,237,0.0,0.0,92,0.00,CLR,,0.00,WeatherDisplay:10.37,2013-06-12 06:05:00,
2013-06-12 02:10:00,57.9,55.6,29.90,SSW,202,0.0,0.0,92,0.00,CLR,,0.00,WeatherDisplay:10.37,2013-06-12 06:10:00,
2013-06-12 02:15:00,57.9,55.6,29.89,SSW,202,0.0,0.0,92,0.00,CLR,,0.00,WeatherDisplay:10.37,2013-06-12 06:15:00,
2013-06-12 02:20:00,57.7,55.4,29.89,SSW,202,0.0,0.0,92,0.00,CLR,,0.00,WeatherDisplay:10.37,2013-06-12 06:20:00,
2013-06-12 02:25:00,57.6,55.3,29.89,SSW,202,0.0,0.0,92,0.00,CLR,,0.00,WeatherDisplay:10.37,2013-06-12 06:25:00,
2013-06-12 02:30:00,57.6,55.3,29.89,West,266,0.0,0.0,92,0.00,CLR,,0.00,WeatherDisplay:10.37,2013-06-12 06:30:00,
2013-06-12 02:35:00,57.2,54.9,29.89,North,2,0.0,0.0,92,0.00,CLR,,0.00,WeatherDisplay:10.37,2013-06-12 06:35:00,
2013-06-12 02:40:00,57.0,54.7,29.89,North,355,0.0,0.0,92,0.00,CLR,,0.00,WeatherDisplay:10.37,2013-06-12 06:40:00,
2013-06-12 02:45:00,56.8,54.5,29.89,NW,322,0.0,0.0,92,0.00,CLR,,0.00,WeatherDisplay:10.37,2013-06-12 06:45:00,
2013-06-12 02:50:00,56.7,54.4,29.88,WNW,302,0.0,0.0,92,0.00,CLR,,0.00,WeatherDisplay:10.37,2013-06-12 06:50:00,
2013-06-12 02:55:00,56.3,54.0,29.88,SW,229,0.0,0.0,92,0.00,CLR,,0.00,WeatherDisplay:10.37,2013-06-12 06:55:00,
2013-06-12 03:00:00,56.1,53.8,29.89,SSW,200,0.0,0.0,92,0.00,CLR,,0.00,WeatherDisplay:10.37,2013-06-12 07:00:00,
2013-06-12 03:05:00,56.1,53.8,29.89,SSW,199,0.0,0.0,92,0.00,CLR,,0.00,WeatherDisplay:10.37,2013-06-12 07:05:00,
2013-06-12 03:10:00,55.9,53.6,29.89,SW,227,0.0,0.0,92,0.00,CLR,,0.00,WeatherDisplay:10.37,2013-06-12 07:10:00,
2013-06-12 03:15:00,55.9,53.6,29.89,WSW,248,0.0,0.0,92,0.00,CLR,,0.00,WeatherDisplay:10.37,2013-06-12 07:15:00,
2013-06-12 03:20:00,55.8,53.5,29.89,WSW,248,0.0,0.0,92,0.00,CLR,,0.00,WeatherDisplay:10.37,2013-06-12 07:20:00,
2013-06-12 03:30:00,55.5,53.2,29.90,SW,232,0.0,0.0,92,0.00,CLR,,0.00,WeatherDisplay:10.37,2013-06-12 07:30:00,
2013-06-12 03:40:00,55.0,53.0,29.90,South,188,2.0,3.0,93,0.00,CLR,,0.00,WeatherDisplay:10.37,2013-06-12 07:40:00,
2013-06-12 03:45:00,55.0,53.0,29.90,South,189,0.0,1.0,93,0.00,CLR,,0.00,WeatherDisplay:10.37,2013-06-12 07:45:00,
2013-06-12 03:50:00,55.0,53.0,29.90,SSW,200,0.0,0.0,93,0.00,CLR,,0.00,WeatherDisplay:10.37,2013-06-12 07:50:00,
2013-06-12 03:55:00,55.0,53.0,29.90,SW,236,0.0,0.0,93,0.00,CLR,,0.00,WeatherDisplay:10.37,2013-06-12 07:55:00,
2013-06-12 04:00:00,54.9,52.9,29.90,SW,227,0.0,0.0,93,0.00,CLR,,0.00,WeatherDisplay:10.37,2013-06-12 08:00:00,
2013-06-12 04:05:00,54.9,52.9,29.90,SSW,202,0.0,0.0,93,0.00,CLR,,0.00,WeatherDisplay:10.37,2013-06-12 08:05:00,
2013-06-12 04:10:00,54.9,52.9,29.90,SSW,205,0.0,0.0,93,0.00,CLR,,0.00,WeatherDisplay:10.37,2013-06-12 08:10:00,
2013-06-12 04:15:00,54.9,52.9,29.90,SSW,193,0.0,0.0,93,0.00,CLR,,0.00,WeatherDisplay:10.37,2013-06-12 08:15:00,
2013-06-12 04:20:00,54.9,52.9,29.90,SSW,194,0.0,0.0,93,0.00,CLR,,0.00,WeatherDisplay:10.37,2013-06-12 08:20:00,
2013-06-12 04:25:00,54.7,52.7,29.90,SSW,209,0.0,0.0,93,0.00,CLR,,0.00,WeatherDisplay:10.37,2013-06-12 08:25:00,
2013-06-12 04:30:00,54.7,52.7,29.90,SW,220,0.0,0.0,93,0.00,CLR,,0.00,WeatherDisplay:10.37,2013-06-12 08:30:00,
2013-06-12 04:35:00,54.3,52.3,29.90,South,181,0.0,0.0,93,0.00,CLR,,0.00,WeatherDisplay:10.37,2013-06-12 08:35:00,
2013-06-12 04:40:00,54.3,52.3,29.90,ENE,75,0.0,0.0,93,0.00,CLR,,0.00,WeatherDisplay:10.37,2013-06-12 08:40:00,
2013-06-12 04:50:00,54.0,52.0,29.90,SW,218,0.0,0.0,93,0.00,CLR,,0.00,WeatherDisplay:10.37,2013-06-12 08:50:00,
2013-06-12 05:00:00,53.6,51.6,29.90,South,189,0.0,0.0,93,0.00,CLR,,0.00,WeatherDisplay:10.37,2013-06-12 09:00:00,
2013-06-12 05:05:00,53.1,51.1,29.89,South,188,0.0,0.0,93,0.00,CLR,,0.00,WeatherDisplay:10.37,2013-06-12 09:05:00,
2013-06-12 05:10:00,52.7,50.7,29.89,SSW,194,2.0,3.0,93,0.00,CLR,,0.00,WeatherDisplay:10.37,2013-06-12 09:10:00,
2013-06-12 05:15:00,52.7,50.7,29.90,SSW,193,0.0,2.0,93,0.00,CLR,,0.00,WeatherDisplay:10.37,2013-06-12 09:15:00,
2013-06-12 05:20:00,52.7,50.7,29.90,SSW,194,0.0,0.0,93,0.00,CLR,,0.00,WeatherDisplay:10.37,2013-06-12 09:20:00,
2013-06-12 05:25:00,52.7,51.0,29.90,SSW,195,0.0,0.0,94,0.00,CLR,,0.00,WeatherDisplay:10.37,2013-06-12 09:25:00,
2013-06-12 05:30:00,52.8,51.1,29.90,SSW,194,2.0,3.0,94,0.00,CLR,,0.00,WeatherDisplay:10.37,2013-06-12 09:30:00,
2013-06-12 05:35:00,53.1,51.4,29.90,SSW,194,0.0,3.0,94,0.00,CLR,,0.00,WeatherDisplay:10.37,2013-06-12 09:35:00,
2013-06-12 05:40:00,53.1,51.4,29.91,SSW,198,0.0,0.0,94,0.00,CLR,,0.00,WeatherDisplay:10.37,2013-06-12 09:40:00,
2013-06-12 05:45:00,53.2,51.5,29.91,SSW,198,2.0,3.0,94,0.00,CLR,,0.00,WeatherDisplay:10.37,2013-06-12 09:45:00,
2013-06-12 05:50:00,53.2,51.5,29.91,SSW,200,2.0,4.0,94,0.00,CLR,,0.00,WeatherDisplay:10.37,2013-06-12 09:50:00,
2013-06-12 06:00:00,52.9,51.2,29.91,SSW,194,0.0,0.0,94,0.00,CLR,,0.00,WeatherDisplay:10.37,2013-06-12 10:00:00,
2013-06-12 06:05:00,53.1,51.4,29.91,SSW,203,0.0,0.0,94,0.00,CLR,,0.00,WeatherDisplay:10.37,2013-06-12 10:05:00,
2013-06-12 06:10:00,53.1,51.4,29.91,SSW,210,0.0,0.0,94,0.00,CLR,,0.00,WeatherDisplay:10.37,2013-06-12 10:10:00,
2013-06-12 06:15:00,52.9,51.2,29.91,SSW,203,0.0,0.0,94,0.00,CLR,,0.00,WeatherDisplay:10.37,2013-06-12 10:15:00,
2013-06-12 06:20:00,52.9,51.2,29.91,SSW,197,0.0,0.0,94,0.00,CLR,,0.00,WeatherDisplay:10.37,2013-06-12 10:20:00,
2013-06-12 06:25:00,52.9,51.2,29.92,SSW,201,0.0,0.0,94,0.00,CLR,,0.00,WeatherDisplay:10.37,2013-06-12 10:25:00,
2013-06-12 06:30:00,53.1,51.4,29.92,SSW,194,0.0,0.0,94,0.00,CLR,,0.00,WeatherDisplay:10.37,2013-06-12 10:30:00,
2013-06-12 06:35:00,53.1,51.4,29.92,South,186,0.0,0.0,94,0.00,CLR,,0.00,WeatherDisplay:10.37,2013-06-12 10:35:00,
2013-06-12 06:40:00,53.2,51.5,29.92,SSW,195,2.0,4.0,94,0.00,CLR,,0.00,WeatherDisplay:10.37,2013-06-12 10:40:00,
2013-06-12 06:45:00,53.4,51.7,29.92,SSW,199,0.0,3.0,94,0.00,CLR,,0.00,WeatherDisplay:10.37,2013-06-12 10:45:00,
2013-06-12 06:50:00,53.6,51.9,29.92,SSW,200,0.0,0.0,94,0.00,CLR,,0.00,WeatherDisplay:10.37,2013-06-12 10:50:00,
2013-06-12 07:00:00,54.0,52.3,29.92,SSW,201,0.0,0.0,94,0.00,CLR,,0.00,WeatherDisplay:10.37,2013-06-12 11:00:00,
2013-06-12 07:05:00,54.3,52.6,29.93,SSW,201,0.0,0.0,94,0.00,CLR,,0.00,WeatherDisplay:10.37,2013-06-12 11:05:00,
2013-06-12 07:10:00,54.5,52.8,29.93,SSW,203,0.0,0.0,94,0.00,CLR,,0.00,WeatherDisplay:10.37,2013-06-12 11:10:00,
2013-06-12 07:15:00,54.9,53.2,29.94,SSW,201,0.0,0.0,94,0.00,CLR,,0.00,WeatherDisplay:10.37,2013-06-12 11:15:00,
2013-06-12 07:20:00,55.2,53.5,29.94,SSW,197,0.0,0.0,94,0.00,CLR,,0.00,WeatherDisplay:10.37,2013-06-12 11:20:00,
2013-06-12 07:25:00,55.7,53.7,29.94,SSW,197,0.0,0.0,93,0.00,CLR,,0.00,WeatherDisplay:10.37,2013-06-12 11:25:00,
2013-06-12 07:30:00,55.9,53.9,29.94,SSW,209,0.0,0.0,93,0.00,CLR,,0.00,WeatherDisplay:10.37,2013-06-12 11:30:00,
2013-06-12 07:40:00,57.5,54.9,29.94,SSW,201,0.0,0.0,91,0.00,CLR,,0.00,WeatherDisplay:10.37,2013-06-12 11:40:00,
2013-06-12 07:50:00,60.6,57.6,29.95,SSW,212,0.0,0.0,90,0.00,CLR,,0.00,WeatherDisplay:10.37,2013-06-12 11:50:00,
2013-06-12 08:00:00,63.2,57.3,29.95,NNE,29,0.0,0.0,81,0.00,CLR,,0.00,WeatherDisplay:10.37,2013-06-12 12:00:00,
2013-06-12 08:05:00,64.0,58.1,29.95,NE,46,0.0,0.0,81,0.00,CLR,,0.00,WeatherDisplay:10.37,2013-06-12 12:05:00,
2013-06-12 08:10:00,64.8,58.1,29.95,NNE,20,0.0,0.0,79,0.00,CLR,,0.00,WeatherDisplay:10.37,2013-06-12 12:10:00,
2013-06-12 08:15:00,65.1,58.0,29.95,NNE,21,0.0,0.0,78,0.00,CLR,,0.00,WeatherDisplay:10.37,2013-06-12 12:15:00,
2013-06-12 08:20:00,65.7,57.9,29.95,North,11,0.0,0.0,76,0.00,CLR,,0.00,WeatherDisplay:10.37,2013-06-12 12:20:00,
2013-06-12 08:25:00,66.1,57.9,29.95,NNE,19,0.0,0.0,75,0.00,CLR,,0.00,WeatherDisplay:10.37,2013-06-12 12:25:00,
2013-06-12 08:35:00,67.5,58.5,29.95,NE,42,0.0,2.0,73,0.00,CLR,,0.00,WeatherDisplay:10.37,2013-06-12 12:35:00,
2013-06-12 08:40:00,67.6,57.9,29.95,NNE,22,0.0,0.0,71,0.00,CLR,,0.00,WeatherDisplay:10.37,2013-06-12 12:40:00,
2013-06-12 08:45:00,67.3,58.3,29.95,North,359,0.0,0.0,73,0.00,CLR,,0.00,WeatherDisplay:10.37,2013-06-12 12:45:00,
2013-06-12 08:50:00,67.1,57.4,29.95,NNE,33,0.0,0.0,71,0.00,CLR,,0.00,WeatherDisplay:10.37,2013-06-12 12:50:00,
2013-06-12 08:55:00,67.3,57.6,29.95,NE,52,0.0,0.0,71,0.00,CLR,,0.00,WeatherDisplay:10.37,2013-06-12 12:55:00,
2013-06-12 09:00:00,67.5,57.8,29.95,NE,42,0.0,0.0,71,0.00,CLR,,0.00,WeatherDisplay:10.37,2013-06-12 13:00:00,
2013-06-12 09:05:00,67.5,57.4,29.96,NE,44,0.0,0.0,70,0.00,CLR,,0.00,WeatherDisplay:10.37,2013-06-12 13:05:00,
2013-06-12 09:10:00,67.6,57.9,29.96,NE,55,0.0,0.0,71,0.00,CLR,,0.00,WeatherDisplay:10.37,2013-06-12 13:10:00,
2013-06-12 09:15:00,67.9,57.8,29.96,NNE,17,0.0,0.0,70,0.00,CLR,,0.00,WeatherDisplay:10.37,2013-06-12 13:15:00,
2013-06-12 09:20:00,68.2,57.6,29.96,NNE,30,0.0,0.0,69,0.00,CLR,,0.00,WeatherDisplay:10.37,2013-06-12 13:20:00,
2013-06-12 09:25:00,68.2,57.6,29.95,NNE,25,0.0,3.0,69,0.00,CLR,,0.00,WeatherDisplay:10.37,2013-06-12 13:25:00,
2013-06-12 09:30:00,67.8,56.9,29.95,NNE,18,0.0,3.0,68,0.00,CLR,,0.00,WeatherDisplay:10.37,2013-06-12 13:30:00,
2013-06-12 09:40:00,68.0,55.4,29.95,NE,53,0.0,0.0,64,0.00,CLR,,0.00,WeatherDisplay:10.37,2013-06-12 13:40:00,
2013-06-12 09:45:00,68.2,56.8,29.95,North,1,0.0,0.0,67,0.00,CLR,,0.00,WeatherDisplay:10.37,2013-06-12 13:45:00,
2013-06-12 09:50:00,68.2,56.0,29.95,North,6,0.0,0.0,65,0.00,CLR,,0.00,WeatherDisplay:10.37,2013-06-12 13:50:00,
2013-06-12 10:00:00,68.9,57.1,29.95,NNW,331,0.0,0.0,66,0.00,CLR,,0.00,WeatherDisplay:10.37,2013-06-12 14:00:00,
2013-06-12 10:05:00,69.1,55.1,29.96,West,279,2.0,3.0,61,0.00,CLR,,0.00,WeatherDisplay:10.37,2013-06-12 14:05:00,
2013-06-12 10:10:00,69.6,56.0,29.96,WNW,286,2.0,4.0,62,0.00,CLR,,0.00,WeatherDisplay:10.37,2013-06-12 14:10:00,
2013-06-12 10:15:00,70.1,56.5,29.95,West,262,0.0,3.0,62,0.00,CLR,,0.00,WeatherDisplay:10.37,2013-06-12 14:15:00,
2013-06-12 10:20:00,70.9,56.8,29.95,West,269,2.0,3.0,61,0.00,CLR,,0.00,WeatherDisplay:10.37,2013-06-12 14:20:00,
2013-06-12 10:25:00,71.1,56.0,29.95,NW,322,3.0,4.0,59,0.00,CLR,,0.00,WeatherDisplay:10.37,2013-06-12 14:25:00,
2013-06-12 10:30:00,71.2,55.2,29.95,North,10,2.0,3.0,57,0.00,CLR,,0.00,WeatherDisplay:10.37,2013-06-12 14:30:00,
2013-06-12 10:35:00,71.2,55.7,29.95,ENE,62,1.0,3.0,58,0.00,CLR,,0.00,WeatherDisplay:10.37,2013-06-12 14:35:00,
2013-06-12 10:40:00,70.9,55.4,29.95,NE,47,1.0,3.0,58,0.00,CLR,,0.00,WeatherDisplay:10.37,2013-06-12 14:40:00,
2013-06-12 10:45:00,70.5,55.4,29.95,NE,42,2.0,4.0,59,0.00,CLR,,0.00,WeatherDisplay:10.37,2013-06-12 14:45:00,
2013-06-12 10:50:00,70.3,55.8,29.95,NNE,33,1.0,3.0,60,0.00,CLR,,0.00,WeatherDisplay:10.37,2013-06-12 14:50:00,
2013-06-12 10:55:00,70.3,54.3,29.95,NNE,27,1.0,3.0,57,0.00,CLR,,0.00,WeatherDisplay:10.37,2013-06-12 14:55:00,
2013-06-12 11:00:00,70.7,56.1,29.95,NNE,22,3.0,4.0,60,0.00,CLR,,0.00,WeatherDisplay:10.37,2013-06-12 15:00:00,
2013-06-12 11:05:00,70.9,56.3,29.96,NE,48,2.0,3.0,60,0.00,CLR,,0.00,WeatherDisplay:10.37,2013-06-12 15:05:00,
2013-06-12 11:10:00,70.9,56.3,29.96,North,8,1.0,3.0,60,0.00,CLR,,0.00,WeatherDisplay:10.37,2013-06-12 15:10:00,
2013-06-12 11:15:00,71.1,56.0,29.95,NW,323,2.0,5.0,59,0.00,CLR,,0.00,WeatherDisplay:10.37,2013-06-12 15:15:00,
2013-06-12 11:20:00,70.9,55.9,29.95,North,353,0.0,3.0,59,0.00,CLR,,0.00,WeatherDisplay:10.37,2013-06-12 15:20:00,
2013-06-12 11:25:00,71.1,56.5,29.96,ENE,60,2.0,4.0,60,0.00,CLR,,0.00,WeatherDisplay:10.37,2013-06-12 15:25:00,
2013-06-12 11:30:00,71.2,55.1,29.96,NE,44,2.0,5.0,57,0.00,CLR,,0.00,WeatherDisplay:10.37,2013-06-12 15:30:00,
2013-06-12 11:35:00,70.9,57.2,29.96,ENE,69,1.0,4.0,62,0.00,CLR,,0.00,WeatherDisplay:10.37,2013-06-12 15:35:00,
2013-06-12 11:40:00,71.1,56.5,29.96,North,6,3.0,4.0,60,0.00,CLR,,0.00,WeatherDisplay:10.37,2013-06-12 15:40:00,
2013-06-12 11:45:00,70.9,54.9,29.96,NNE,33,2.0,3.0,57,0.00,CLR,,0.00,WeatherDisplay:10.37,2013-06-12 15:45:00,
2013-06-12 11:50:00,70.7,55.2,29.96,NNE,14,0.0,3.0,58,0.00,CLR,,0.00,WeatherDisplay:10.37,2013-06-12 15:50:00,
2013-06-12 11:55:00,70.9,56.3,29.96,NNE,23,1.0,3.0,60,0.00,CLR,,0.00,WeatherDisplay:10.37,2013-06-12 15:55:00,
2013-06-12 12:00:00,71.1,56.5,29.96,NE,47,2.0,3.0,60,0.00,CLR,,0.00,WeatherDisplay:10.37,2013-06-12 16:00:00,
2013-06-12 12:05:00,71.1,56.5,29.96,NNE,12,0.0,3.0,60,0.00,CLR,,0.00,WeatherDisplay:10.37,2013-06-12 16:05:00,
2013-06-12 12:10:00,71.3,56.2,29.96,NNE,24,1.0,4.0,59,0.00,CLR,,0.00,WeatherDisplay:10.37,2013-06-12 16:10:00,
2013-06-12 12:20:00,70.9,54.4,29.96,SSW,207,1.0,5.0,56,0.00,CLR,,0.00,WeatherDisplay:10.37,2013-06-12 16:20:00,
2013-06-12 12:25:00,70.8,55.2,29.96,SSW,198,1.0,4.0,58,0.00,CLR,,0.00,WeatherDisplay:10.37,2013-06-12 16:25:00,
2013-06-12 12:30:00,70.9,55.4,29.96,North,360,2.0,3.0,58,0.00,CLR,,0.00,WeatherDisplay:10.37,2013-06-12 16:30:00,
2013-06-12 12:40:00,71.4,54.4,29.96,WNW,293,0.0,3.0,55,0.00,CLR,,0.00,WeatherDisplay:10.37,2013-06-12 16:40:00,
2013-06-12 12:50:00,71.4,54.4,29.95,NE,43,2.0,3.0,55,0.00,CLR,,0.00,WeatherDisplay:10.37,2013-06-12 16:50:00,
2013-06-12 12:55:00,72.1,54.0,29.95,WSW,242,2.0,3.0,53,0.00,CLR,,0.00,WeatherDisplay:10.37,2013-06-12 16:55:00,
2013-06-12 13:00:00,72.3,54.7,29.95,WNW,295,2.0,4.0,54,0.00,CLR,,0.00,WeatherDisplay:10.37,2013-06-12 17:00:00,
2013-06-12 13:05:00,72.7,54.6,29.94,ESE,108,2.0,3.0,53,0.00,CLR,,0.00,WeatherDisplay:10.37,2013-06-12 17:05:00,
2013-06-12 13:10:00,72.7,53.0,29.94,East,83,2.0,3.0,50,0.00,CLR,,0.00,WeatherDisplay:10.37,2013-06-12 17:10:00,
2013-06-12 13:15:00,72.9,54.2,29.94,ENE,68,2.0,3.0,52,0.00,CLR,,0.00,WeatherDisplay:10.37,2013-06-12 17:15:00,
2013-06-12 13:20:00,72.7,54.1,29.94,ENE,75,1.0,3.0,52,0.00,CLR,,0.00,WeatherDisplay:10.37,2013-06-12 17:20:00,
2013-06-12 13:25:00,73.6,54.4,29.92,ENE,57,0.0,3.0,51,0.00,CLR,,0.00,WeatherDisplay:10.37,2013-06-12 17:25:00,
2013-06-12 13:30:00,74.3,55.5,29.92,North,354,2.0,4.0,52,0.00,CLR,,0.00,WeatherDisplay:10.37,2013-06-12 17:30:00,
2013-06-12 13:35:00,74.7,55.9,29.92,North,2,1.0,4.0,52,0.00,CLR,,0.00,WeatherDisplay:10.37,2013-06-12 17:35:00,
2013-06-12 13:40:00,74.3,53.9,29.92,NNE,29,1.0,3.0,49,0.00,CLR,,0.00,WeatherDisplay:10.37,2013-06-12 17:40:00,
2013-06-12 13:45:00,75.1,56.3,29.92,South,170,2.0,4.0,52,0.00,CLR,,0.00,WeatherDisplay:10.37,2013-06-12 17:45:00,
2013-06-12 13:50:00,74.4,55.6,29.91,SSW,211,2.0,4.0,52,0.00,CLR,,0.00,WeatherDisplay:10.37,2013-06-12 17:50:00,
2013-06-12 14:00:00,76.2,55.0,29.91,North,355,0.0,3.0,48,0.00,CLR,,0.00,WeatherDisplay:10.37,2013-06-12 18:00:00,
2013-06-12 14:05:00,77.5,56.3,29.91,NNE,13,0.0,3.0,48,0.00,CLR,,0.00,WeatherDisplay:10.37,2013-06-12 18:05:00,
2013-06-12 14:10:00,78.9,57.0,29.91,NNW,347,2.0,4.0,47,0.00,CLR,,0.00,WeatherDisplay:10.37,2013-06-12 18:10:00,
2013-06-12 14:20:00,80.8,57.5,29.91,North,355,2.0,3.0,45,0.00,CLR,,0.00,WeatherDisplay:10.37,2013-06-12 18:20:00,
2013-06-12 14:25:00,82.4,57.0,29.90,NNE,19,1.0,2.0,42,0.00,CLR,,0.00,WeatherDisplay:10.37,2013-06-12 18:25:00,
2013-06-12 14:30:00,80.8,57.5,29.90,NE,40,2.0,3.0,45,0.00,CLR,,0.00,WeatherDisplay:10.37,2013-06-12 18:30:00,
2013-06-12 14:35:00,82.4,55.0,29.90,NNE,13,2.0,5.0,39,0.00,CLR,,0.00,WeatherDisplay:10.37,2013-06-12 18:35:00,
2013-06-12 14:40:00,81.1,57.1,29.90,WSW,247,2.0,3.0,44,0.00,CLR,,0.00,WeatherDisplay:10.37,2013-06-12 18:40:00,
2013-06-12 14:45:00,83.2,55.7,29.90,SSW,203,2.0,3.0,39,0.00,CLR,,0.00,WeatherDisplay:10.37,2013-06-12 18:45:00,
2013-06-12 14:50:00,83.3,55.0,29.91,ENE,60,3.0,4.0,38,0.00,CLR,,0.00,WeatherDisplay:10.37,2013-06-12 18:50:00,
2013-06-12 14:55:00,82.4,55.7,29.91,North,3,0.0,3.0,40,0.00,CLR,,0.00,WeatherDisplay:10.37,2013-06-12 18:55:00,
2013-06-12 15:00:00,81.4,56.1,29.90,West,278,0.0,2.0,42,0.00,CLR,,0.00,WeatherDisplay:10.37,2013-06-12 19:00:00,
2013-06-12 15:05:00,81.7,55.7,29.90,WNW,287,3.0,4.0,41,0.00,CLR,,0.00,WeatherDisplay:10.37,2013-06-12 19:05:00,
2013-06-12 15:10:00,81.0,55.7,29.90,WNW,283,2.0,5.0,42,0.00,CLR,,0.00,WeatherDisplay:10.37,2013-06-12 19:10:00,
2013-06-12 15:15:00,81.0,58.3,29.90,SW,223,0.0,3.0,46,0.00,CLR,,0.00,WeatherDisplay:10.37,2013-06-12 19:15:00,
2013-06-12 15:20:00,83.9,57.7,29.90,ESE,102,1.0,3.0,41,0.00,CLR,,0.00,WeatherDisplay:10.37,2013-06-12 19:20:00,
2013-06-12 15:30:00,86.3,58.4,29.90,NNW,336,1.0,2.0,39,0.00,CLR,,0.00,WeatherDisplay:10.37,2013-06-12 19:30:00,
2013-06-12 15:35:00,86.8,58.9,29.90,WSW,253,2.0,3.0,39,0.00,CLR,,0.00,WeatherDisplay:10.37,2013-06-12 19:35:00,
2013-06-12 15:40:00,81.9,55.9,29.90,SSW,207,6.0,7.0,41,0.00,CLR,,0.00,WeatherDisplay:10.37,2013-06-12 19:40:00,
2013-06-12 15:45:00,84.2,57.3,29.90,SSW,200,2.0,6.0,40,0.00,CLR,,0.00,WeatherDisplay:10.37,2013-06-12 19:45:00,
2013-06-12 15:50:00,82.7,57.3,29.89,SSW,202,1.0,5.0,42,0.00,CLR,,0.00,WeatherDisplay:10.37,2013-06-12 19:50:00,
2013-06-12 15:55:00,83.6,58.1,29.89,SSW,209,3.0,5.0,42,0.00,CLR,,0.00,WeatherDisplay:10.37,2013-06-12 19:55:00,
2013-06-12 16:00:00,84.5,58.2,29.89,West,269,2.0,5.0,41,0.00,CLR,,0.00,WeatherDisplay:10.37,2013-06-12 20:00:00,
2013-06-12 16:05:00,85.7,57.2,29.88,NW,315,2.0,5.0,38,0.00,CLR,,0.00,WeatherDisplay:10.37,2013-06-12 20:05:00,
2013-06-12 16:10:00,86.2,57.6,29.88,North,349,3.0,5.0,38,0.00,CLR,,0.00,WeatherDisplay:10.37,2013-06-12 20:10:00,
2013-06-12 16:15:00,85.9,58.8,29.88,North,355,3.0,5.0,40,0.00,CLR,,0.00,WeatherDisplay:10.37,2013-06-12 20:15:00,
2013-06-12 16:20:00,84.5,56.9,29.88,WNW,302,2.0,5.0,39,0.00,CLR,,0.00,WeatherDisplay:10.37,2013-06-12 20:20:00,
2013-06-12 16:30:00,82.8,58.0,29.87,West,277,2.0,3.0,43,0.00,CLR,,0.00,WeatherDisplay:10.37,2013-06-12 20:30:00,
2013-06-12 16:35:00,84.5,57.6,29.87,WNW,295,2.0,2.0,40,0.00,CLR,,0.00,WeatherDisplay:10.37,2013-06-12 20:35:00,
2013-06-12 16:40:00,83.7,57.5,29.86,North,352,2.0,3.0,41,0.00,CLR,,0.00,WeatherDisplay:10.37,2013-06-12 20:40:00,
2013-06-12 16:50:00,81.3,56.0,29.86,NE,39,1.0,4.0,42,0.00,CLR,,0.00,WeatherDisplay:10.37,2013-06-12 20:50:00,
2013-06-12 16:55:00,80.6,56.7,29.86,NE,41,2.0,3.0,44,0.00,CLR,,0.00,WeatherDisplay:10.37,2013-06-12 20:55:00,
2013-06-12 17:00:00,79.2,56.0,29.86,NNW,330,1.0,3.0,45,0.00,CLR,,0.00,WeatherDisplay:10.37,2013-06-12 21:00:00,
2013-06-12 17:05:00,78.5,56.6,29.86,NW,307,1.0,3.0,47,0.00,CLR,,0.00,WeatherDisplay:10.37,2013-06-12 21:05:00,
2013-06-12 17:10:00,78.8,58.6,29.86,NNW,338,1.0,3.0,50,0.00,CLR,,0.00,WeatherDisplay:10.37,2013-06-12 21:10:00,
2013-06-12 17:15:00,78.7,57.4,29.86,NE,48,0.0,2.0,48,0.00,CLR,,0.00,WeatherDisplay:10.37,2013-06-12 21:15:00,
2013-06-12 17:20:00,78.4,58.8,29.86,NE,55,0.0,2.0,51,0.00,CLR,,0.00,WeatherDisplay:10.37,2013-06-12 21:20:00,
2013-06-12 17:35:00,76.8,56.7,29.87,NNW,335,2.0,3.0,50,0.00,CLR,,0.00,WeatherDisplay:10.37,2013-06-12 21:35:00,
2013-06-12 17:40:00,76.2,56.8,29.87,NNW,332,0.0,2.0,51,0.00,CLR,,0.00,WeatherDisplay:10.37,2013-06-12 21:40:00,
2013-06-12 17:45:00,75.6,56.7,29.87,NW,310,0.0,2.0,52,0.00,CLR,,0.00,WeatherDisplay:10.37,2013-06-12 21:45:00,
2013-06-12 17:50:00,75.2,57.4,29.88,WNW,284,0.0,2.0,54,0.00,CLR,,0.00,WeatherDisplay:10.37,2013-06-12 21:50:00,
2013-06-12 18:00:00,74.9,58.1,29.88,NW,308,1.0,2.0,56,0.00,CLR,,0.00,WeatherDisplay:10.37,2013-06-12 22:00:00,
2013-06-12 18:05:00,74.8,60.4,29.88,NNW,333,1.0,2.0,61,0.00,CLR,,0.00,WeatherDisplay:10.37,2013-06-12 22:05:00,
2013-06-12 18:10:00,74.5,60.6,29.88,WNW,290,0.0,1.0,62,0.00,CLR,,0.00,WeatherDisplay:10.37,2013-06-12 22:10:00,
2013-06-12 18:20:00,74.3,61.8,29.88,West,262,0.0,1.0,65,0.00,CLR,,0.00,WeatherDisplay:10.37,2013-06-12 22:20:00,
2013-06-12 18:25:00,74.3,61.3,29.87,West,280,0.0,0.0,64,0.00,CLR,,0.00,WeatherDisplay:10.37,2013-06-12 22:25:00,
2013-06-12 18:30:00,74.3,62.2,29.87,WNW,291,0.0,0.0,66,0.00,CLR,,0.00,WeatherDisplay:10.37,2013-06-12 22:30:00,
2013-06-12 18:35:00,74.0,61.9,29.87,West,267,0.0,0.0,66,0.00,CLR,,0.00,WeatherDisplay:10.37,2013-06-12 22:35:00,
2013-06-12 18:40:00,73.4,62.2,29.87,West,263,0.0,0.0,68,0.00,CLR,,0.00,WeatherDisplay:10.37,2013-06-12 22:40:00,
2013-06-12 18:45:00,73.4,61.3,29.87,West,264,0.0,0.0,66,0.00,CLR,,0.00,WeatherDisplay:10.37,2013-06-12 22:45:00,
2013-06-12 18:50:00,73.4,62.6,29.87,WSW,239,0.0,0.0,69,0.00,CLR,,0.00,WeatherDisplay:10.37,2013-06-12 22:50:00,
2013-06-12 18:55:00,73.4,63.0,29.87,WSW,246,0.0,0.0,70,0.00,CLR,,0.00,WeatherDisplay:10.37,2013-06-12 22:55:00,
2013-06-12 19:00:00,73.2,62.8,29.86,West,264,0.0,0.0,70,0.00,CLR,,0.00,WeatherDisplay:10.37,2013-06-12 23:00:00,
2013-06-12 19:05:00,72.7,62.8,29.86,SW,234,0.0,0.0,71,0.00,CLR,,0.00,WeatherDisplay:10.37,2013-06-12 23:05:00,
2013-06-12 19:10:00,72.5,62.6,29.86,SW,236,0.0,0.0,71,0.00,CLR,,0.00,WeatherDisplay:10.37,2013-06-12 23:10:00,
2013-06-12 19:15:00,72.3,61.5,29.85,WNW,299,0.0,0.0,69,0.00,CLR,,0.00,WeatherDisplay:10.37,2013-06-12 23:15:00,
2013-06-12 19:20:00,72.0,62.1,29.85,WNW,300,0.0,0.0,71,0.00,CLR,,0.00,WeatherDisplay:10.37,2013-06-12 23:20:00,
2013-06-12 19:25:00,71.4,61.9,29.85,WSW,256,0.0,0.0,72,0.00,CLR,,0.00,WeatherDisplay:10.37,2013-06-12 23:25:00,
2013-06-12 19:30:00,70.7,61.6,29.85,SW,232,0.0,0.0,73,0.00,CLR,,0.00,WeatherDisplay:10.37,2013-06-12 23:30:00,
2013-06-12 19:35:00,70.3,62.4,29.85,SW,219,0.0,0.0,76,0.00,CLR,,0.00,WeatherDisplay:10.37,2013-06-12 23:35:00,
2013-06-12 19:40:00,69.5,61.6,29.85,SSW,208,0.0,0.0,76,0.00,CLR,,0.00,WeatherDisplay:10.37,2013-06-12 23:40:00,
2013-06-12 19:45:00,69.4,61.1,29.85,SW,219,0.0,0.0,75,0.00,CLR,,0.00,WeatherDisplay:10.37,2013-06-12 23:45:00,
2013-06-12 19:50:00,69.4,61.1,29.85,WSW,242,0.0,0.0,75,0.00,CLR,,0.00,WeatherDisplay:10.37,2013-06-12 23:50:00,
2013-06-12 19:55:00,69.3,61.0,29.85,WSW,238,0.0,0.0,75,0.00,CLR,,0.00,WeatherDisplay:10.37,2013-06-12 23:55:00,
2013-06-12 20:00:00,68.9,61.0,29.85,WSW,257,0.0,0.0,76,0.00,CLR,,0.00,WeatherDisplay:10.37,2013-06-13 00:00:00,
2013-06-12 20:10:00,68.2,61.1,29.85,West,270,0.0,0.0,78,0.00,CLR,,0.00,WeatherDisplay:10.37,2013-06-13 00:10:00,
2013-06-12 20:20:00,67.8,61.0,29.85,SW,225,0.0,0.0,79,0.00,CLR,,0.00,WeatherDisplay:10.37,2013-06-13 00:20:00,
2013-06-12 20:30:00,66.7,60.3,29.85,SSW,197,0.0,0.0,80,0.00,CLR,,0.00,WeatherDisplay:10.37,2013-06-13 00:30:00,
2013-06-12 20:35:00,66.6,60.6,29.85,SSW,198,0.0,0.0,81,0.00,CLR,,0.00,WeatherDisplay:10.37,2013-06-13 00:35:00,
2013-06-12 20:40:00,66.6,60.2,29.85,SSW,208,0.0,0.0,80,0.00,CLR,,0.00,WeatherDisplay:10.37,2013-06-13 00:40:00,
2013-06-12 20:50:00,66.4,60.0,29.84,SSW,202,0.0,0.0,80,0.00,CLR,,0.00,WeatherDisplay:10.37,2013-06-13 00:50:00,
2013-06-12 21:00:00,66.4,60.4,29.84,WSW,238,0.0,0.0,81,0.00,CLR,,0.00,WeatherDisplay:10.37,2013-06-13 01:00:00,
2013-06-12 21:05:00,66.0,60.0,29.84,SW,223,0.0,0.0,81,0.00,CLR,,0.00,WeatherDisplay:10.37,2013-06-13 01:05:00,
2013-06-12 21:10:00,66.0,60.0,29.84,SW,220,0.0,0.0,81,0.00,CLR,,0.00,WeatherDisplay:10.37,2013-06-13 01:10:00,
2013-06-12 21:20:00,65.7,59.7,29.83,SW,218,0.0,0.0,81,0.00,CLR,,0.00,WeatherDisplay:10.37,2013-06-13 01:20:00,
2013-06-12 21:25:00,65.5,59.9,29.84,SW,220,0.0,0.0,82,0.00,CLR,,0.00,WeatherDisplay:10.37,2013-06-13 01:25:00,
2013-06-12 21:30:00,65.5,59.9,29.84,WSW,248,0.0,0.0,82,0.00,CLR,,0.00,WeatherDisplay:10.37,2013-06-13 01:30:00,
2013-06-12 21:40:00,65.3,59.3,29.84,WSW,248,0.0,0.0,81,0.00,CLR,,0.00,WeatherDisplay:10.37,2013-06-13 01:40:00,
2013-06-12 21:50:00,65.1,59.5,29.84,South,178,0.0,0.0,82,0.00,CLR,,0.00,WeatherDisplay:10.37,2013-06-13 01:50:00,
2013-06-12 21:55:00,65.1,59.5,29.84,West,271,1.0,2.0,82,0.00,CLR,,0.00,WeatherDisplay:10.37,2013-06-13 01:55:00,
2013-06-12 22:00:00,64.9,59.6,29.84,WSW,241,0.0,2.0,83,0.00,CLR,,0.00,WeatherDisplay:10.37,2013-06-13 02:00:00,
2013-06-12 22:05:00,64.9,59.6,29.84,SW,225,0.0,0.0,83,0.00,CLR,,0.00,WeatherDisplay:10.37,2013-06-13 02:05:00,
2013-06-12 22:10:00,64.9,59.9,29.84,SSW,211,0.0,0.0,84,0.00,CLR,,0.00,WeatherDisplay:10.37,2013-06-13 02:10:00,
2013-06-12 22:15:00,64.8,59.9,29.84,SSW,207,0.0,0.0,84,0.00,CLR,,0.00,WeatherDisplay:10.37,2013-06-13 02:15:00,
2013-06-12 22:20:00,64.8,59.9,29.84,SW,219,0.0,0.0,84,0.00,CLR,,0.00,WeatherDisplay:10.37,2013-06-13 02:20:00,
2013-06-12 22:25:00,64.6,59.7,29.83,SW,225,0.0,0.0,84,0.00,CLR,,0.00,WeatherDisplay:10.37,2013-06-13 02:25:00,
2013-06-12 22:30:00,64.4,60.1,29.83,SSW,201,0.0,0.0,86,0.00,CLR,,0.00,WeatherDisplay:10.37,2013-06-13 02:30:00,
2013-06-12 22:35:00,64.4,59.8,29.83,South,182,0.0,0.0,85,0.00,CLR,,0.00,WeatherDisplay:10.37,2013-06-13 02:35:00,
2013-06-12 22:40:00,64.4,59.8,29.83,SSW,209,2.0,2.0,85,0.00,CLR,,0.00,WeatherDisplay:10.37,2013-06-13 02:40:00,
2013-06-12 22:45:00,64.4,59.8,29.83,SW,235,0.0,0.0,85,0.00,CLR,,0.00,WeatherDisplay:10.37,2013-06-13 02:45:00,
2013-06-12 22:50:00,64.4,59.8,29.83,SW,226,0.0,0.0,85,0.00,CLR,,0.00,WeatherDisplay:10.37,2013-06-13 02:50:00,
2013-06-12 22:55:00,64.2,59.6,29.83,SSW,211,0.0,0.0,85,0.00,CLR,,0.00,WeatherDisplay:10.37,2013-06-13 02:55:00,
2013-06-12 23:00:00,64.2,59.9,29.83,SSW,208,0.0,3.0,86,0.00,CLR,,0.00,WeatherDisplay:10.37,2013-06-13 03:00:00,
2013-06-12 23:05:00,64.2,59.9,29.82,South,182,1.0,3.0,86,0.00,CLR,,0.00,WeatherDisplay:10.37,2013-06-13 03:05:00,
2013-06-12 23:10:00,64.2,59.9,29.82,South,186,0.0,0.0,86,0.00,CLR,,0.00,WeatherDisplay:10.37,2013-06-13 03:10:00,
2013-06-12 23:15:00,64.2,59.9,29.81,SSW,211,0.0,0.0,86,0.00,CLR,,0.00,WeatherDisplay:10.37,2013-06-13 03:15:00,
2013-06-12 23:20:00,64.0,59.8,29.81,SSW,211,0.0,0.0,86,0.00,CLR,,0.00,WeatherDisplay:10.37,2013-06-13 03:20:00,
2013-06-12 23:25:00,64.0,59.7,29.81,SSW,209,0.0,0.0,86,0.00,CLR,,0.00,WeatherDisplay:10.37,2013-06-13 03:25:00,
2013-06-12 23:30:00,63.5,59.6,29.81,SSW,203,0.0,0.0,87,0.00,CLR,,0.00,WeatherDisplay:10.37,2013-06-13 03:30:00,
2013-06-12 23:35:00,63.5,59.6,29.81,SSW,207,0.0,0.0,87,0.00,CLR,,0.00,WeatherDisplay:10.37,2013-06-13 03:35:00,
2013-06-12 23:40:00,63.3,59.4,29.80,SSW,204,0.0,0.0,87,0.00,CLR,,0.00,WeatherDisplay:10.37,2013-06-13 03:40:00,
2013-06-12 23:50:00,63.3,59.7,29.80,SSW,195,2.0,3.0,88,0.00,CLR,,0.00,WeatherDisplay:10.37,2013-06-13 03:50:00,
2013-06-12 23:55:00,63.3,59.4,29.80,SSW,197,2.0,3.0,87,0.00,CLR,,0.00,WeatherDisplay:10.37,2013-06-13 03:55:00,